JBU2374 MDPC-KFLL
Flight info
| Callsign | JBU2374 |
|---|---|
| Flight time | 2h 15m |
| Altitude | 34000 |
| Route | MALVN2W MALVN DCT RUMFO DCT ZQA OLAHS3 |
| Aircraft | A321/M-SDE3FGHIRWY/LB1 |
Departure
| Time | 2026-05-03 23:33 |
|---|---|
| Airport | Punta Cana International Airport (MDPC) |
Arrival
| Time | 2026-05-04 01:49 |
|---|---|
| Airport | Fort Lauderdale Hollywood International Airport (KFLL) |
| Time | Latitude | Longitude | Altitude | Speed | Heading |
|---|---|---|---|---|---|
| 2026-05-03 22:41 | 18.56361 | -68.36603 | 49 ft | 0 kts | 176° |
| 2026-05-03 23:24 | 18.56360 | -68.36604 | 50 ft | 0 kts | 163° |
| 2026-05-03 23:24 | 18.56358 | -68.36610 | 50 ft | 4 kts | 49° |
| 2026-05-03 23:25 | 18.56381 | -68.36600 | 50 ft | 4 kts | 20° |
| 2026-05-03 23:25 | 18.56406 | -68.36588 | 47 ft | 4 kts | 28° |
| 2026-05-03 23:25 | 18.56426 | -68.36572 | 50 ft | 2 kts | 42° |
| 2026-05-03 23:25 | 18.56422 | -68.36576 | 50 ft | 0 kts | 43° |
| 2026-05-03 23:27 | 18.56424 | -68.36575 | 48 ft | 1 kts | 43° |
| 2026-05-03 23:27 | 18.56430 | -68.36571 | 50 ft | 1 kts | 31° |
| 2026-05-03 23:27 | 18.56442 | -68.36572 | 50 ft | 3 kts | 344° |
| 2026-05-03 23:28 | 18.56479 | -68.36614 | 48 ft | 12 kts | 310° |
| 2026-05-03 23:28 | 18.56522 | -68.36695 | 49 ft | 13 kts | 285° |
| 2026-05-03 23:28 | 18.56521 | -68.36790 | 50 ft | 14 kts | 265° |
| 2026-05-03 23:28 | 18.56512 | -68.36890 | 50 ft | 14 kts | 265° |
| 2026-05-03 23:29 | 18.56503 | -68.36996 | 49 ft | 15 kts | 265° |
| 2026-05-03 23:29 | 18.56492 | -68.37104 | 50 ft | 15 kts | 264° |
| 2026-05-03 23:29 | 18.56483 | -68.37219 | 50 ft | 16 kts | 266° |
| 2026-05-03 23:29 | 18.56474 | -68.37337 | 50 ft | 16 kts | 264° |
| 2026-05-03 23:30 | 18.56464 | -68.37458 | 50 ft | 17 kts | 263° |
| 2026-05-03 23:30 | 18.56450 | -68.37613 | 50 ft | 27 kts | 263° |
| 2026-05-03 23:30 | 18.56479 | -68.37791 | 47 ft | 19 kts | 335° |
| 2026-05-03 23:30 | 18.56563 | -68.37790 | 48 ft | 12 kts | 358° |
| 2026-05-03 23:31 | 18.56683 | -68.37820 | 49 ft | 20 kts | 312° |
| 2026-05-03 23:31 | 18.56742 | -68.37948 | 50 ft | 20 kts | 293° |
| 2026-05-03 23:31 | 18.56802 | -68.38088 | 50 ft | 21 kts | 292° |
| 2026-05-03 23:31 | 18.56862 | -68.38224 | 49 ft | 20 kts | 295° |
| 2026-05-03 23:32 | 18.56979 | -68.38277 | 52 ft | 19 kts | 345° |
| 2026-05-03 23:32 | 18.57035 | -68.38270 | 52 ft | 3 kts | 49° |
| 2026-05-03 23:32 | 18.57043 | -68.38246 | 52 ft | 6 kts | 75° |
| 2026-05-03 23:32 | 18.57131 | -68.37933 | 50 ft | 86 kts | 72° |
| 2026-05-03 23:33 | 18.57363 | -68.37093 | 50 ft | 153 kts | 74° |
| 2026-05-03 23:33 | 18.57691 | -68.35879 | 508 ft | 176 kts | 74° |
| 2026-05-03 23:33 | 18.58031 | -68.34608 | 1194 ft | 191 kts | 74° |
| 2026-05-03 23:33 | 18.58403 | -68.33265 | 1731 ft | 189 kts | 73° |
| 2026-05-03 23:34 | 18.58726 | -68.31930 | 2252 ft | 186 kts | 83° |
| 2026-05-03 23:34 | 18.58675 | -68.30573 | 2589 ft | 193 kts | 108° |
| 2026-05-03 23:34 | 18.57918 | -68.29353 | 2732 ft | 209 kts | 137° |
| 2026-05-03 23:34 | 18.56737 | -68.28403 | 2908 ft | 221 kts | 142° |
| 2026-05-03 23:35 | 18.55466 | -68.27378 | 3117 ft | 236 kts | 141° |
| 2026-05-03 23:35 | 18.54091 | -68.26361 | 3455 ft | 252 kts | 154° |
| 2026-05-03 23:35 | 18.52343 | -68.26091 | 3956 ft | 264 kts | 188° |
| 2026-05-03 23:35 | 18.50672 | -68.26944 | 4559 ft | 275 kts | 218° |
| 2026-05-03 23:36 | 18.49241 | -68.28327 | 4858 ft | 281 kts | 221° |
| 2026-05-03 23:36 | 18.48001 | -68.29907 | 4918 ft | 282 kts | 239° |
| 2026-05-03 23:36 | 18.47318 | -68.31845 | 4936 ft | 285 kts | 258° |
| 2026-05-03 23:36 | 18.47176 | -68.33934 | 4942 ft | 288 kts | 267° |
| 2026-05-03 23:37 | 18.47112 | -68.36028 | 4927 ft | 286 kts | 267° |
| 2026-05-03 23:37 | 18.47040 | -68.38137 | 5360 ft | 289 kts | 266° |
| 2026-05-03 23:37 | 18.46967 | -68.40233 | 6059 ft | 289 kts | 267° |
| 2026-05-03 23:37 | 18.46888 | -68.42388 | 6754 ft | 293 kts | 266° |
| 2026-05-03 23:38 | 18.46807 | -68.44545 | 7424 ft | 297 kts | 267° |
| 2026-05-03 23:38 | 18.46724 | -68.46721 | 8042 ft | 299 kts | 267° |
| 2026-05-03 23:38 | 18.46642 | -68.48923 | 8635 ft | 302 kts | 267° |
| 2026-05-03 23:38 | 18.46569 | -68.51139 | 9186 ft | 305 kts | 267° |
| 2026-05-03 23:39 | 18.46554 | -68.53343 | 9706 ft | 307 kts | 274° |
| 2026-05-03 23:39 | 18.46949 | -68.55569 | 10086 ft | 317 kts | 288° |
| 2026-05-03 23:39 | 18.47848 | -68.57788 | 10227 ft | 334 kts | 296° |
| 2026-05-03 23:39 | 18.48890 | -68.59994 | 10360 ft | 348 kts | 296° |
| 2026-05-03 23:40 | 18.49987 | -68.62319 | 10584 ft | 360 kts | 296° |
| 2026-05-03 23:40 | 18.51098 | -68.64687 | 11027 ft | 365 kts | 296° |
| 2026-05-03 23:40 | 18.52223 | -68.67106 | 11555 ft | 365 kts | 296° |
| 2026-05-03 23:40 | 18.53338 | -68.69509 | 12042 ft | 367 kts | 296° |
| 2026-05-03 23:41 | 18.54461 | -68.71928 | 12555 ft | 369 kts | 295° |
| 2026-05-03 23:41 | 18.55593 | -68.74363 | 13055 ft | 370 kts | 295° |
| 2026-05-03 23:41 | 18.56727 | -68.76806 | 13589 ft | 372 kts | 295° |
| 2026-05-03 23:41 | 18.57870 | -68.79264 | 14106 ft | 374 kts | 295° |
| 2026-05-03 23:42 | 18.59021 | -68.81726 | 14608 ft | 375 kts | 295° |
| 2026-05-03 23:42 | 18.60180 | -68.84199 | 15094 ft | 377 kts | 295° |
| 2026-05-03 23:42 | 18.61333 | -68.86690 | 15594 ft | 379 kts | 295° |
| 2026-05-03 23:42 | 18.62487 | -68.89194 | 16107 ft | 381 kts | 295° |
| 2026-05-03 23:43 | 18.63649 | -68.91711 | 16572 ft | 383 kts | 295° |
| 2026-05-03 23:43 | 18.64826 | -68.94249 | 17075 ft | 386 kts | 294° |
| 2026-05-03 23:43 | 18.66006 | -68.96797 | 17581 ft | 387 kts | 295° |
| 2026-05-03 23:43 | 18.67193 | -68.99359 | 18081 ft | 390 kts | 294° |
| 2026-05-03 23:44 | 18.68385 | -69.01928 | 18566 ft | 391 kts | 294° |
| 2026-05-03 23:44 | 18.69585 | -69.04518 | 19000 ft | 394 kts | 295° |
| 2026-05-03 23:44 | 18.70789 | -69.07122 | 19435 ft | 396 kts | 294° |
| 2026-05-03 23:44 | 18.72005 | -69.09741 | 19811 ft | 399 kts | 295° |
| 2026-05-03 23:45 | 18.73231 | -69.12389 | 20180 ft | 403 kts | 295° |
| 2026-05-03 23:45 | 18.74463 | -69.15062 | 20578 ft | 407 kts | 295° |
| 2026-05-03 23:45 | 18.75704 | -69.17755 | 20964 ft | 409 kts | 295° |
| 2026-05-03 23:45 | 18.76954 | -69.20466 | 21318 ft | 412 kts | 295° |
| 2026-05-03 23:46 | 18.78209 | -69.23191 | 21658 ft | 415 kts | 296° |
| 2026-05-03 23:46 | 18.79473 | -69.25953 | 22050 ft | 419 kts | 295° |
| 2026-05-03 23:46 | 18.80749 | -69.28727 | 22399 ft | 420 kts | 296° |
| 2026-05-03 23:46 | 18.82035 | -69.31505 | 22685 ft | 422 kts | 295° |
| 2026-05-03 23:47 | 18.83321 | -69.34298 | 22947 ft | 424 kts | 296° |
| 2026-05-03 23:47 | 18.84619 | -69.37110 | 23210 ft | 427 kts | 295° |
| 2026-05-03 23:47 | 18.85919 | -69.39939 | 23486 ft | 429 kts | 296° |
| 2026-05-03 23:47 | 18.87227 | -69.42786 | 23766 ft | 432 kts | 296° |
| 2026-05-03 23:48 | 18.88542 | -69.45648 | 24039 ft | 434 kts | 296° |
| 2026-05-03 23:48 | 18.89863 | -69.48521 | 24295 ft | 435 kts | 296° |
| 2026-05-03 23:48 | 18.91170 | -69.51364 | 24533 ft | 437 kts | 296° |
| 2026-05-03 23:48 | 18.92500 | -69.54262 | 24786 ft | 440 kts | 296° |
| 2026-05-03 23:49 | 18.93832 | -69.57170 | 25021 ft | 442 kts | 295° |
| 2026-05-03 23:49 | 18.95170 | -69.60094 | 25303 ft | 442 kts | 296° |
| 2026-05-03 23:49 | 18.96516 | -69.63022 | 25558 ft | 444 kts | 296° |
| 2026-05-03 23:49 | 18.97869 | -69.65956 | 25822 ft | 446 kts | 295° |
| 2026-05-03 23:50 | 18.99221 | -69.68911 | 26050 ft | 447 kts | 296° |
| 2026-05-03 23:50 | 19.00115 | -69.70865 | 26204 ft | 446 kts | 296° |
| 2026-05-03 23:50 | 19.01926 | -69.74834 | 26481 ft | 450 kts | 296° |
| 2026-05-03 23:50 | 19.03287 | -69.77812 | 26721 ft | 452 kts | 295° |
| 2026-05-03 23:51 | 19.04651 | -69.80808 | 26981 ft | 452 kts | 295° |
| 2026-05-03 23:51 | 19.06015 | -69.83798 | 27203 ft | 454 kts | 296° |
| 2026-05-03 23:51 | 19.07386 | -69.86805 | 27415 ft | 455 kts | 296° |
| 2026-05-03 23:51 | 19.08763 | -69.89829 | 27659 ft | 458 kts | 296° |
| 2026-05-03 23:52 | 19.10149 | -69.92865 | 27916 ft | 460 kts | 296° |
| 2026-05-03 23:52 | 19.11543 | -69.95913 | 28158 ft | 460 kts | 296° |
| 2026-05-03 23:52 | 19.12933 | -69.98959 | 28346 ft | 461 kts | 296° |
| 2026-05-03 23:52 | 19.14330 | -70.02021 | 28550 ft | 463 kts | 296° |
| 2026-05-03 23:53 | 19.15730 | -70.05098 | 28751 ft | 465 kts | 295° |
| 2026-05-03 23:53 | 19.17132 | -70.08188 | 28985 ft | 465 kts | 295° |
| 2026-05-03 23:53 | 19.18537 | -70.11279 | 29178 ft | 468 kts | 295° |
| 2026-05-03 23:53 | 19.19949 | -70.14389 | 29394 ft | 469 kts | 295° |
| 2026-05-03 23:54 | 19.21362 | -70.17504 | 29620 ft | 471 kts | 295° |
| 2026-05-03 23:54 | 19.22778 | -70.20630 | 29833 ft | 471 kts | 295° |
| 2026-05-03 23:54 | 19.24197 | -70.23763 | 30046 ft | 474 kts | 295° |
| 2026-05-03 23:54 | 19.25605 | -70.26865 | 30266 ft | 474 kts | 295° |
| 2026-05-03 23:55 | 19.27032 | -70.30007 | 30546 ft | 473 kts | 295° |
| 2026-05-03 23:55 | 19.28472 | -70.33189 | 30861 ft | 473 kts | 295° |
| 2026-05-03 23:55 | 19.29866 | -70.36278 | 31191 ft | 471 kts | 295° |
| 2026-05-03 23:55 | 19.31273 | -70.39405 | 31518 ft | 468 kts | 295° |
| 2026-05-03 23:56 | 19.32673 | -70.42509 | 31821 ft | 467 kts | 295° |
| 2026-05-03 23:56 | 19.34074 | -70.45611 | 32115 ft | 467 kts | 295° |
| 2026-05-03 23:56 | 19.35471 | -70.48706 | 32436 ft | 465 kts | 295° |
| 2026-05-03 23:56 | 19.36863 | -70.51784 | 32766 ft | 461 kts | 295° |
| 2026-05-03 23:57 | 19.38246 | -70.54839 | 33056 ft | 460 kts | 295° |
| 2026-05-03 23:57 | 19.39740 | -70.57831 | 33319 ft | 458 kts | 303° |
| 2026-05-03 23:57 | 19.41641 | -70.60520 | 33555 ft | 458 kts | 311° |
| 2026-05-03 23:57 | 19.43943 | -70.62839 | 33884 ft | 456 kts | 320° |
| 2026-05-03 23:58 | 19.46487 | -70.64848 | 33985 ft | 455 kts | 323° |
| 2026-05-03 23:58 | 19.49043 | -70.66829 | 34001 ft | 454 kts | 323° |
| 2026-05-03 23:58 | 19.54129 | -70.70771 | 34001 ft | 452 kts | 322° |
| 2026-05-03 23:59 | 19.59200 | -70.74718 | 33999 ft | 453 kts | 322° |
| 2026-05-03 23:59 | 19.64269 | -70.78665 | 33986 ft | 451 kts | 322° |
| 2026-05-04 00:00 | 19.69330 | -70.82591 | 33955 ft | 449 kts | 322° |
| 2026-05-04 00:00 | 19.74375 | -70.86518 | 33969 ft | 451 kts | 322° |
| 2026-05-04 00:01 | 19.79426 | -70.90471 | 33962 ft | 450 kts | 322° |
| 2026-05-04 00:01 | 19.84480 | -70.94414 | 33964 ft | 449 kts | 322° |
| 2026-05-04 00:02 | 19.89522 | -70.98346 | 33966 ft | 450 kts | 323° |
| 2026-05-04 00:02 | 19.94542 | -71.02266 | 33976 ft | 452 kts | 322° |
| 2026-05-04 00:03 | 19.99592 | -71.06217 | 33995 ft | 452 kts | 322° |
| 2026-05-04 00:03 | 20.04611 | -71.10134 | 33975 ft | 444 kts | 322° |
| 2026-05-04 00:04 | 20.09617 | -71.14053 | 33971 ft | 448 kts | 322° |
| 2026-05-04 00:04 | 20.14619 | -71.17995 | 33970 ft | 448 kts | 322° |
| 2026-05-04 00:05 | 20.19633 | -71.21936 | 33982 ft | 447 kts | 322° |
| 2026-05-04 00:05 | 20.24627 | -71.25867 | 34003 ft | 447 kts | 322° |
| 2026-05-04 00:06 | 20.29637 | -71.29810 | 34011 ft | 448 kts | 322° |
| 2026-05-04 00:06 | 20.34658 | -71.33751 | 34011 ft | 448 kts | 322° |
| 2026-05-04 00:07 | 20.39671 | -71.37695 | 34016 ft | 448 kts | 321° |
| 2026-05-04 00:07 | 20.43968 | -71.42360 | 34025 ft | 444 kts | 307° |
| 2026-05-04 00:08 | 20.47811 | -71.47514 | 34017 ft | 443 kts | 307° |
| 2026-05-04 00:08 | 20.51654 | -71.52643 | 34010 ft | 442 kts | 308° |
| 2026-05-04 00:09 | 20.55483 | -71.57784 | 34002 ft | 443 kts | 308° |
| 2026-05-04 00:09 | 20.59311 | -71.62951 | 34011 ft | 444 kts | 307° |
| 2026-05-04 00:10 | 20.63155 | -71.68134 | 34015 ft | 446 kts | 307° |
| 2026-05-04 00:10 | 20.67011 | -71.73302 | 34013 ft | 445 kts | 307° |
| 2026-05-04 00:11 | 20.70852 | -71.78478 | 34024 ft | 445 kts | 308° |
| 2026-05-04 00:11 | 20.74688 | -71.83659 | 34021 ft | 443 kts | 307° |
| 2026-05-04 00:12 | 20.78505 | -71.88832 | 34016 ft | 443 kts | 307° |
| 2026-05-04 00:12 | 20.82299 | -71.93965 | 34019 ft | 443 kts | 307° |
| 2026-05-04 00:13 | 20.86132 | -71.99146 | 34014 ft | 445 kts | 307° |
| 2026-05-04 00:13 | 20.89975 | -72.04326 | 34018 ft | 444 kts | 307° |
| 2026-05-04 00:14 | 20.93802 | -72.09519 | 34017 ft | 445 kts | 306° |
| 2026-05-04 00:14 | 20.97629 | -72.14727 | 34012 ft | 444 kts | 307° |
| 2026-05-04 00:15 | 21.01449 | -72.19915 | 34006 ft | 445 kts | 307° |
| 2026-05-04 00:15 | 21.05290 | -72.25131 | 34012 ft | 445 kts | 307° |
| 2026-05-04 00:16 | 21.08469 | -72.29451 | 34012 ft | 444 kts | 306° |
| 2026-05-04 00:16 | 21.12271 | -72.34642 | 34013 ft | 443 kts | 307° |
| 2026-05-04 00:17 | 21.16067 | -72.39824 | 34023 ft | 442 kts | 306° |
| 2026-05-04 00:17 | 21.19873 | -72.45002 | 34019 ft | 442 kts | 306° |
| 2026-05-04 00:18 | 21.23681 | -72.50193 | 34018 ft | 444 kts | 306° |
| 2026-05-04 00:18 | 21.27491 | -72.55418 | 34028 ft | 445 kts | 306° |
| 2026-05-04 00:19 | 21.31305 | -72.60629 | 34026 ft | 445 kts | 306° |
| 2026-05-04 00:19 | 21.35123 | -72.65850 | 34035 ft | 444 kts | 306° |
| 2026-05-04 00:20 | 21.38911 | -72.71065 | 34033 ft | 443 kts | 306° |
| 2026-05-04 00:20 | 21.42703 | -72.76282 | 34038 ft | 443 kts | 306° |
| 2026-05-04 00:21 | 21.46492 | -72.81466 | 34032 ft | 444 kts | 306° |
| 2026-05-04 00:21 | 21.50297 | -72.86684 | 34023 ft | 444 kts | 306° |
| 2026-05-04 00:22 | 21.54102 | -72.91915 | 34048 ft | 444 kts | 306° |
| 2026-05-04 00:22 | 21.57889 | -72.97125 | 34034 ft | 442 kts | 306° |
| 2026-05-04 00:23 | 21.61662 | -73.02332 | 34017 ft | 442 kts | 306° |
| 2026-05-04 00:23 | 21.65443 | -73.07558 | 34034 ft | 444 kts | 306° |
| 2026-05-04 00:24 | 21.69232 | -73.12780 | 34048 ft | 442 kts | 305° |
| 2026-05-04 00:24 | 21.73017 | -73.18008 | 34047 ft | 443 kts | 306° |
| 2026-05-04 00:25 | 21.76789 | -73.23248 | 34028 ft | 443 kts | 305° |
| 2026-05-04 00:25 | 21.80554 | -73.28474 | 34024 ft | 441 kts | 305° |
| 2026-05-04 00:26 | 21.84316 | -73.33679 | 34034 ft | 440 kts | 306° |
| 2026-05-04 00:26 | 21.88068 | -73.38865 | 34047 ft | 438 kts | 305° |
| 2026-05-04 00:27 | 21.91783 | -73.44028 | 34027 ft | 439 kts | 305° |
| 2026-05-04 00:27 | 21.95545 | -73.49279 | 34036 ft | 440 kts | 305° |
| 2026-05-04 00:28 | 21.99261 | -73.54439 | 34049 ft | 439 kts | 305° |
| 2026-05-04 00:28 | 22.02992 | -73.59642 | 34035 ft | 438 kts | 304° |
| 2026-05-04 00:29 | 22.06729 | -73.64852 | 34056 ft | 440 kts | 304° |
| 2026-05-04 00:29 | 22.10469 | -73.70072 | 34063 ft | 440 kts | 304° |
| 2026-05-04 00:30 | 22.14203 | -73.75284 | 34060 ft | 439 kts | 304° |
| 2026-05-04 00:30 | 22.17935 | -73.80520 | 34045 ft | 439 kts | 305° |
| 2026-05-04 00:31 | 22.21663 | -73.85740 | 34054 ft | 438 kts | 304° |
| 2026-05-04 00:31 | 22.25264 | -73.90795 | 34059 ft | 440 kts | 304° |
| 2026-05-04 00:32 | 22.29012 | -73.96030 | 34060 ft | 440 kts | 304° |
| 2026-05-04 00:32 | 22.32765 | -74.01272 | 34074 ft | 441 kts | 304° |
| 2026-05-04 00:33 | 22.38336 | -74.09112 | 34067 ft | 438 kts | 304° |
| 2026-05-04 00:34 | 22.42038 | -74.14345 | 34065 ft | 440 kts | 304° |
| 2026-05-04 00:34 | 22.45755 | -74.19588 | 34068 ft | 439 kts | 305° |
| 2026-05-04 00:35 | 22.49470 | -74.24816 | 34069 ft | 438 kts | 304° |
| 2026-05-04 00:35 | 22.53164 | -74.30034 | 34061 ft | 437 kts | 303° |
| 2026-05-04 00:36 | 22.56860 | -74.35273 | 34053 ft | 438 kts | 304° |
| 2026-05-04 00:36 | 22.60563 | -74.40491 | 34054 ft | 436 kts | 304° |
| 2026-05-04 00:37 | 22.64250 | -74.45686 | 34052 ft | 434 kts | 303° |
| 2026-05-04 00:37 | 22.67900 | -74.50873 | 34031 ft | 433 kts | 303° |
| 2026-05-04 00:38 | 22.71541 | -74.56054 | 34033 ft | 432 kts | 303° |
| 2026-05-04 00:38 | 22.75191 | -74.61238 | 34051 ft | 432 kts | 303° |
| 2026-05-04 00:39 | 22.78840 | -74.66438 | 34055 ft | 433 kts | 303° |
| 2026-05-04 00:39 | 22.82489 | -74.71626 | 34060 ft | 433 kts | 303° |
| 2026-05-04 00:40 | 22.86136 | -74.76818 | 34057 ft | 434 kts | 303° |
| 2026-05-04 00:40 | 22.89784 | -74.82014 | 34058 ft | 432 kts | 303° |
| 2026-05-04 00:41 | 22.93437 | -74.87217 | 34057 ft | 434 kts | 303° |
| 2026-05-04 00:41 | 22.97064 | -74.92409 | 34052 ft | 430 kts | 302° |
| 2026-05-04 00:42 | 23.00687 | -74.97592 | 34046 ft | 432 kts | 303° |
| 2026-05-04 00:42 | 23.04322 | -75.02788 | 34059 ft | 433 kts | 303° |
| 2026-05-04 00:43 | 23.07964 | -75.07995 | 34059 ft | 433 kts | 302° |
| 2026-05-04 00:43 | 23.11888 | -75.12914 | 34061 ft | 434 kts | 307° |
| 2026-05-04 00:44 | 23.15963 | -75.17746 | 34061 ft | 433 kts | 309° |
| 2026-05-04 00:44 | 23.20043 | -75.22579 | 34053 ft | 434 kts | 308° |
| 2026-05-04 00:45 | 23.24118 | -75.27425 | 34056 ft | 434 kts | 308° |
| 2026-05-04 00:45 | 23.28187 | -75.32274 | 34049 ft | 435 kts | 308° |
| 2026-05-04 00:46 | 23.32257 | -75.37125 | 34069 ft | 433 kts | 308° |
| 2026-05-04 00:46 | 23.36225 | -75.41861 | 34065 ft | 431 kts | 307° |
| 2026-05-04 00:47 | 23.40238 | -75.46662 | 34060 ft | 429 kts | 307° |
| 2026-05-04 00:47 | 23.44252 | -75.51452 | 34051 ft | 428 kts | 307° |
| 2026-05-04 00:48 | 23.48270 | -75.56265 | 34063 ft | 428 kts | 307° |
| 2026-05-04 00:48 | 23.52280 | -75.61068 | 34053 ft | 430 kts | 307° |
| 2026-05-04 00:49 | 23.56303 | -75.65883 | 34055 ft | 430 kts | 307° |
| 2026-05-04 00:49 | 23.60314 | -75.70703 | 34048 ft | 429 kts | 307° |
| 2026-05-04 00:50 | 23.64305 | -75.75513 | 34056 ft | 427 kts | 307° |
| 2026-05-04 00:50 | 23.68290 | -75.80312 | 34059 ft | 427 kts | 307° |
| 2026-05-04 00:51 | 23.72255 | -75.85077 | 34065 ft | 427 kts | 307° |
| 2026-05-04 00:51 | 23.76242 | -75.89869 | 34066 ft | 426 kts | 307° |
| 2026-05-04 00:52 | 23.80220 | -75.94672 | 34070 ft | 428 kts | 306° |
| 2026-05-04 00:52 | 23.84198 | -75.99468 | 34055 ft | 425 kts | 306° |
| 2026-05-04 00:53 | 23.88177 | -76.04271 | 34065 ft | 426 kts | 307° |
| 2026-05-04 00:53 | 23.92049 | -76.08952 | 34061 ft | 426 kts | 306° |
| 2026-05-04 00:54 | 23.96017 | -76.13759 | 34050 ft | 427 kts | 306° |
| 2026-05-04 00:54 | 23.99988 | -76.18582 | 34052 ft | 426 kts | 306° |
| 2026-05-04 00:55 | 24.03946 | -76.23390 | 34064 ft | 426 kts | 306° |
| 2026-05-04 00:55 | 24.07901 | -76.28198 | 34065 ft | 425 kts | 306° |
| 2026-05-04 00:56 | 24.11840 | -76.32991 | 34069 ft | 427 kts | 306° |
| 2026-05-04 00:56 | 24.15812 | -76.37815 | 34067 ft | 425 kts | 306° |
| 2026-05-04 00:57 | 24.19764 | -76.42624 | 34068 ft | 424 kts | 307° |
| 2026-05-04 00:57 | 24.23703 | -76.47434 | 34069 ft | 425 kts | 306° |
| 2026-05-04 00:58 | 24.27656 | -76.52275 | 34071 ft | 425 kts | 306° |
| 2026-05-04 00:58 | 24.31617 | -76.57114 | 34068 ft | 427 kts | 307° |
| 2026-05-04 00:59 | 24.35590 | -76.61963 | 34068 ft | 427 kts | 306° |
| 2026-05-04 00:59 | 24.39552 | -76.66801 | 34065 ft | 425 kts | 306° |
| 2026-05-04 01:00 | 24.43488 | -76.71637 | 34060 ft | 425 kts | 306° |
| 2026-05-04 01:00 | 24.47438 | -76.76463 | 34058 ft | 423 kts | 307° |
| 2026-05-04 01:01 | 24.51378 | -76.81289 | 34066 ft | 426 kts | 306° |
| 2026-05-04 01:01 | 24.55310 | -76.86146 | 34062 ft | 426 kts | 306° |
| 2026-05-04 01:02 | 24.59258 | -76.91024 | 34071 ft | 428 kts | 306° |
| 2026-05-04 01:02 | 24.63201 | -76.95889 | 34069 ft | 426 kts | 306° |
| 2026-05-04 01:03 | 24.67139 | -77.00732 | 34056 ft | 425 kts | 306° |
| 2026-05-04 01:03 | 24.71077 | -77.05574 | 34054 ft | 424 kts | 306° |
| 2026-05-04 01:04 | 24.74994 | -77.10416 | 34048 ft | 423 kts | 306° |
| 2026-05-04 01:04 | 24.78898 | -77.15273 | 34058 ft | 424 kts | 306° |
| 2026-05-04 01:05 | 24.82819 | -77.20131 | 34058 ft | 425 kts | 306° |
| 2026-05-04 01:05 | 24.86718 | -77.24953 | 34055 ft | 425 kts | 306° |
| 2026-05-04 01:06 | 24.90634 | -77.29826 | 34054 ft | 426 kts | 306° |
| 2026-05-04 01:06 | 24.94545 | -77.34682 | 34065 ft | 426 kts | 306° |
| 2026-05-04 01:07 | 24.98479 | -77.39565 | 34056 ft | 425 kts | 306° |
| 2026-05-04 01:07 | 25.01703 | -77.43693 | 34053 ft | 420 kts | 300° |
| 2026-05-04 01:08 | 25.04304 | -77.49290 | 34048 ft | 411 kts | 288° |
| 2026-05-04 01:08 | 25.06465 | -77.55085 | 34050 ft | 411 kts | 288° |
| 2026-05-04 01:09 | 25.08661 | -77.60935 | 34057 ft | 411 kts | 288° |
| 2026-05-04 01:09 | 25.10842 | -77.66757 | 34059 ft | 412 kts | 288° |
| 2026-05-04 01:10 | 25.12996 | -77.72501 | 34066 ft | 413 kts | 288° |
| 2026-05-04 01:10 | 25.15178 | -77.78343 | 34039 ft | 413 kts | 288° |
| 2026-05-04 01:11 | 25.17352 | -77.84210 | 34057 ft | 413 kts | 287° |
| 2026-05-04 01:11 | 25.19519 | -77.90093 | 34061 ft | 413 kts | 288° |
| 2026-05-04 01:12 | 25.21695 | -77.95929 | 33974 ft | 408 kts | 288° |
| 2026-05-04 01:12 | 25.22772 | -77.98793 | 33721 ft | 401 kts | 288° |
| 2026-05-04 01:12 | 25.23831 | -78.01621 | 33472 ft | 395 kts | 287° |
| 2026-05-04 01:12 | 25.24872 | -78.04411 | 33224 ft | 391 kts | 287° |
| 2026-05-04 01:13 | 25.25905 | -78.07188 | 32975 ft | 389 kts | 286° |
| 2026-05-04 01:13 | 25.26919 | -78.09950 | 32717 ft | 388 kts | 287° |
| 2026-05-04 01:13 | 25.27924 | -78.12700 | 32448 ft | 384 kts | 286° |
| 2026-05-04 01:13 | 25.28910 | -78.15394 | 31995 ft | 383 kts | 286° |
| 2026-05-04 01:14 | 25.29907 | -78.18102 | 31519 ft | 380 kts | 286° |
| 2026-05-04 01:14 | 25.30923 | -78.20795 | 31043 ft | 380 kts | 287° |
| 2026-05-04 01:14 | 25.31978 | -78.23462 | 30564 ft | 377 kts | 287° |
| 2026-05-04 01:14 | 25.33047 | -78.26103 | 30113 ft | 377 kts | 287° |
| 2026-05-04 01:15 | 25.34122 | -78.28733 | 29651 ft | 374 kts | 287° |
| 2026-05-04 01:15 | 25.35188 | -78.31338 | 29193 ft | 370 kts | 288° |
| 2026-05-04 01:15 | 25.36234 | -78.33916 | 28766 ft | 366 kts | 287° |
| 2026-05-04 01:15 | 25.37260 | -78.36478 | 28339 ft | 362 kts | 287° |
| 2026-05-04 01:16 | 25.38273 | -78.39015 | 27929 ft | 358 kts | 288° |
| 2026-05-04 01:16 | 25.39279 | -78.41531 | 27502 ft | 357 kts | 287° |
| 2026-05-04 01:16 | 25.40274 | -78.44033 | 27102 ft | 355 kts | 288° |
| 2026-05-04 01:16 | 25.41262 | -78.46520 | 26685 ft | 352 kts | 288° |
| 2026-05-04 01:17 | 25.42228 | -78.48999 | 26291 ft | 349 kts | 288° |
| 2026-05-04 01:17 | 25.43177 | -78.51462 | 25883 ft | 347 kts | 287° |
| 2026-05-04 01:17 | 25.44115 | -78.53909 | 25482 ft | 346 kts | 287° |
| 2026-05-04 01:17 | 25.45047 | -78.56348 | 25071 ft | 343 kts | 287° |
| 2026-05-04 01:18 | 25.45969 | -78.58772 | 24653 ft | 339 kts | 288° |
| 2026-05-04 01:18 | 25.46885 | -78.61165 | 24246 ft | 336 kts | 288° |
| 2026-05-04 01:18 | 25.47786 | -78.63533 | 23825 ft | 333 kts | 288° |
| 2026-05-04 01:18 | 25.48681 | -78.65892 | 23414 ft | 330 kts | 288° |
| 2026-05-04 01:19 | 25.49570 | -78.68225 | 23002 ft | 329 kts | 288° |
| 2026-05-04 01:19 | 25.50460 | -78.70548 | 22578 ft | 326 kts | 289° |
| 2026-05-04 01:19 | 25.51345 | -78.72845 | 22166 ft | 323 kts | 288° |
| 2026-05-04 01:19 | 25.52223 | -78.75129 | 21754 ft | 320 kts | 288° |
| 2026-05-04 01:20 | 25.53090 | -78.77384 | 21345 ft | 317 kts | 288° |
| 2026-05-04 01:20 | 25.53948 | -78.79621 | 20943 ft | 315 kts | 288° |
| 2026-05-04 01:20 | 25.54798 | -78.81841 | 20538 ft | 312 kts | 288° |
| 2026-05-04 01:20 | 25.55641 | -78.84040 | 20130 ft | 309 kts | 288° |
| 2026-05-04 01:21 | 25.56471 | -78.86226 | 19735 ft | 307 kts | 288° |
| 2026-05-04 01:21 | 25.57292 | -78.88391 | 19346 ft | 304 kts | 288° |
| 2026-05-04 01:21 | 25.58102 | -78.90544 | 18948 ft | 302 kts | 288° |
| 2026-05-04 01:21 | 25.58909 | -78.92682 | 18563 ft | 300 kts | 289° |
| 2026-05-04 01:22 | 25.59715 | -78.94806 | 18170 ft | 298 kts | 288° |
| 2026-05-04 01:22 | 25.60521 | -78.96916 | 17794 ft | 298 kts | 289° |
| 2026-05-04 01:22 | 25.61319 | -78.98993 | 17410 ft | 296 kts | 288° |
| 2026-05-04 01:22 | 25.62109 | -79.01080 | 17030 ft | 293 kts | 289° |
| 2026-05-04 01:23 | 25.62893 | -79.03153 | 16653 ft | 291 kts | 289° |
| 2026-05-04 01:23 | 25.63676 | -79.05210 | 16274 ft | 289 kts | 289° |
| 2026-05-04 01:23 | 25.64453 | -79.07261 | 15896 ft | 287 kts | 289° |
| 2026-05-04 01:23 | 25.65222 | -79.09302 | 15503 ft | 287 kts | 288° |
| 2026-05-04 01:24 | 25.65985 | -79.11339 | 15114 ft | 286 kts | 288° |
| 2026-05-04 01:24 | 25.66739 | -79.13364 | 14765 ft | 284 kts | 289° |
| 2026-05-04 01:24 | 25.67490 | -79.15380 | 14404 ft | 282 kts | 288° |
| 2026-05-04 01:24 | 25.68239 | -79.17386 | 14040 ft | 282 kts | 289° |
| 2026-05-04 01:25 | 25.68989 | -79.19385 | 13688 ft | 281 kts | 289° |
| 2026-05-04 01:25 | 25.69734 | -79.21376 | 13332 ft | 278 kts | 289° |
| 2026-05-04 01:25 | 25.70473 | -79.23351 | 12977 ft | 276 kts | 290° |
| 2026-05-04 01:25 | 25.71209 | -79.25308 | 12626 ft | 273 kts | 290° |
| 2026-05-04 01:26 | 25.71914 | -79.27190 | 12289 ft | 273 kts | 289° |
| 2026-05-04 01:26 | 25.72648 | -79.29154 | 11941 ft | 272 kts | 289° |
| 2026-05-04 01:26 | 25.73369 | -79.31090 | 11598 ft | 270 kts | 289° |
| 2026-05-04 01:26 | 25.74080 | -79.33018 | 11251 ft | 270 kts | 289° |
| 2026-05-04 01:27 | 25.74780 | -79.34929 | 10903 ft | 269 kts | 289° |
| 2026-05-04 01:27 | 25.75495 | -79.36880 | 10568 ft | 268 kts | 289° |
| 2026-05-04 01:27 | 25.76189 | -79.38767 | 10256 ft | 266 kts | 290° |
| 2026-05-04 01:27 | 25.76915 | -79.40743 | 10185 ft | 279 kts | 290° |
| 2026-05-04 01:28 | 25.77648 | -79.42755 | 10073 ft | 282 kts | 290° |
| 2026-05-04 01:28 | 25.78376 | -79.44753 | 9858 ft | 285 kts | 290° |
| 2026-05-04 01:28 | 25.79126 | -79.46802 | 9420 ft | 287 kts | 290° |
| 2026-05-04 01:28 | 25.79880 | -79.48849 | 9029 ft | 286 kts | 290° |
| 2026-05-04 01:29 | 25.80635 | -79.50889 | 8624 ft | 285 kts | 291° |
| 2026-05-04 01:29 | 25.81388 | -79.52930 | 8248 ft | 285 kts | 290° |
| 2026-05-04 01:29 | 25.82126 | -79.54957 | 7877 ft | 284 kts | 291° |
| 2026-05-04 01:29 | 25.82858 | -79.56985 | 7487 ft | 282 kts | 290° |
| 2026-05-04 01:30 | 25.83583 | -79.58994 | 7086 ft | 281 kts | 290° |
| 2026-05-04 01:30 | 25.84312 | -79.60995 | 6771 ft | 278 kts | 291° |
| 2026-05-04 01:30 | 25.85049 | -79.62972 | 6311 ft | 278 kts | 290° |
| 2026-05-04 01:30 | 25.85795 | -79.64938 | 6050 ft | 272 kts | 293° |
| 2026-05-04 01:31 | 25.86583 | -79.66846 | 6016 ft | 274 kts | 294° |
| 2026-05-04 01:31 | 25.87406 | -79.68747 | 6015 ft | 274 kts | 295° |
| 2026-05-04 01:31 | 25.88240 | -79.70646 | 6007 ft | 273 kts | 295° |
| 2026-05-04 01:31 | 25.89074 | -79.72540 | 6008 ft | 273 kts | 295° |
| 2026-05-04 01:32 | 25.89900 | -79.74438 | 6006 ft | 273 kts | 295° |
| 2026-05-04 01:32 | 25.90719 | -79.76338 | 6007 ft | 273 kts | 295° |
| 2026-05-04 01:32 | 25.91539 | -79.78245 | 6010 ft | 273 kts | 294° |
| 2026-05-04 01:32 | 25.92356 | -79.80152 | 6014 ft | 273 kts | 295° |
| 2026-05-04 01:33 | 25.93161 | -79.82041 | 6004 ft | 272 kts | 294° |
| 2026-05-04 01:33 | 25.93974 | -79.83945 | 6012 ft | 273 kts | 294° |
| 2026-05-04 01:33 | 25.94768 | -79.85808 | 6011 ft | 273 kts | 294° |
| 2026-05-04 01:33 | 25.95582 | -79.87725 | 6011 ft | 273 kts | 294° |
| 2026-05-04 01:34 | 25.96384 | -79.89619 | 6011 ft | 273 kts | 294° |
| 2026-05-04 01:34 | 25.97191 | -79.91526 | 6011 ft | 273 kts | 294° |
| 2026-05-04 01:34 | 25.97998 | -79.93421 | 6008 ft | 273 kts | 294° |
| 2026-05-04 01:34 | 25.98887 | -79.95285 | 6011 ft | 273 kts | 303° |
| 2026-05-04 01:35 | 26.00122 | -79.96910 | 6013 ft | 274 kts | 311° |
| 2026-05-04 01:35 | 26.01396 | -79.98473 | 6010 ft | 274 kts | 310° |
| 2026-05-04 01:35 | 26.02683 | -80.00060 | 6008 ft | 274 kts | 310° |
| 2026-05-04 01:35 | 26.03947 | -80.01623 | 6011 ft | 275 kts | 310° |
| 2026-05-04 01:36 | 26.05218 | -80.03195 | 6006 ft | 274 kts | 310° |
| 2026-05-04 01:36 | 26.06486 | -80.04762 | 6012 ft | 275 kts | 310° |
| 2026-05-04 01:36 | 26.07764 | -80.06340 | 6011 ft | 275 kts | 310° |
| 2026-05-04 01:36 | 26.09042 | -80.07920 | 6005 ft | 268 kts | 310° |
| 2026-05-04 01:37 | 26.09925 | -80.09010 | 6003 ft | 257 kts | 310° |
| 2026-05-04 01:37 | 26.10268 | -80.09433 | 6017 ft | 253 kts | 310° |
| 2026-05-04 01:37 | 26.11421 | -80.10853 | 6004 ft | 240 kts | 310° |
| 2026-05-04 01:37 | 26.12525 | -80.12217 | 6011 ft | 236 kts | 310° |
| 2026-05-04 01:38 | 26.13607 | -80.13575 | 6037 ft | 232 kts | 307° |
| 2026-05-04 01:38 | 26.14451 | -80.15091 | 6015 ft | 230 kts | 292° |
| 2026-05-04 01:38 | 26.14930 | -80.16764 | 5950 ft | 228 kts | 280° |
| 2026-05-04 01:38 | 26.15046 | -80.18504 | 5851 ft | 226 kts | 270° |
| 2026-05-04 01:39 | 26.15047 | -80.20256 | 5758 ft | 227 kts | 269° |
| 2026-05-04 01:39 | 26.15053 | -80.22006 | 5665 ft | 226 kts | 269° |
| 2026-05-04 01:39 | 26.15059 | -80.23751 | 5574 ft | 227 kts | 270° |
| 2026-05-04 01:39 | 26.15063 | -80.25508 | 5478 ft | 226 kts | 271° |
| 2026-05-04 01:40 | 26.15086 | -80.27255 | 5369 ft | 226 kts | 270° |
| 2026-05-04 01:40 | 26.15110 | -80.29003 | 5277 ft | 226 kts | 270° |
| 2026-05-04 01:40 | 26.15117 | -80.30758 | 5188 ft | 227 kts | 269° |
| 2026-05-04 01:40 | 26.15108 | -80.32501 | 5087 ft | 226 kts | 269° |
| 2026-05-04 01:41 | 26.15090 | -80.34255 | 4998 ft | 226 kts | 269° |
| 2026-05-04 01:41 | 26.15066 | -80.36005 | 5011 ft | 226 kts | 269° |
| 2026-05-04 01:41 | 26.15034 | -80.37755 | 5009 ft | 226 kts | 268° |
| 2026-05-04 01:41 | 26.14999 | -80.39505 | 5009 ft | 226 kts | 269° |
| 2026-05-04 01:42 | 26.14962 | -80.41257 | 5009 ft | 226 kts | 268° |
| 2026-05-04 01:42 | 26.14834 | -80.42994 | 4922 ft | 228 kts | 255° |
| 2026-05-04 01:42 | 26.14134 | -80.44477 | 4651 ft | 225 kts | 228° |
| 2026-05-04 01:42 | 26.12863 | -80.45444 | 4365 ft | 225 kts | 200° |
| 2026-05-04 01:43 | 26.11339 | -80.45629 | 4102 ft | 226 kts | 173° |
| 2026-05-04 01:43 | 26.09849 | -80.45085 | 3996 ft | 227 kts | 150° |
| 2026-05-04 01:43 | 26.08659 | -80.43947 | 4022 ft | 229 kts | 128° |
| 2026-05-04 01:43 | 26.07938 | -80.42364 | 3999 ft | 227 kts | 104° |
| 2026-05-04 01:44 | 26.07805 | -80.40709 | 4004 ft | 210 kts | 90° |
| 2026-05-04 01:44 | 26.07800 | -80.39150 | 3899 ft | 200 kts | 90° |
| 2026-05-04 01:44 | 26.07794 | -80.37607 | 3678 ft | 197 kts | 90° |
| 2026-05-04 01:44 | 26.07791 | -80.36979 | 3576 ft | 197 kts | 90° |
| 2026-05-04 01:45 | 26.07785 | -80.35572 | 3357 ft | 194 kts | 90° |
| 2026-05-04 01:45 | 26.07779 | -80.34076 | 3106 ft | 190 kts | 90° |
| 2026-05-04 01:45 | 26.07765 | -80.31239 | 2586 ft | 179 kts | 90° |
| 2026-05-04 01:46 | 26.07760 | -80.29867 | 2360 ft | 175 kts | 90° |
| 2026-05-04 01:46 | 26.07754 | -80.28512 | 2144 ft | 165 kts | 90° |
| 2026-05-04 01:46 | 26.07748 | -80.27262 | 1907 ft | 158 kts | 90° |
| 2026-05-04 01:46 | 26.07742 | -80.26081 | 1718 ft | 154 kts | 89° |
| 2026-05-04 01:47 | 26.07737 | -80.24877 | 1507 ft | 152 kts | 89° |
| 2026-05-04 01:47 | 26.07731 | -80.23709 | 1303 ft | 151 kts | 89° |
| 2026-05-04 01:47 | 26.07726 | -80.22536 | 1099 ft | 152 kts | 90° |
| 2026-05-04 01:47 | 26.07721 | -80.21372 | 889 ft | 150 kts | 89° |
| 2026-05-04 01:48 | 26.07704 | -80.20206 | 682 ft | 149 kts | 89° |
| 2026-05-04 01:48 | 26.07713 | -80.19057 | 519 ft | 149 kts | 89° |
| 2026-05-04 01:48 | 26.07710 | -80.17908 | 354 ft | 149 kts | 89° |
| 2026-05-04 01:48 | 26.07703 | -80.16754 | 116 ft | 148 kts | 89° |
| 2026-05-04 01:49 | 26.07690 | -80.15654 | 16 ft | 123 kts | 91° |
| 2026-05-04 01:49 | 26.07687 | -80.15036 | 16 ft | 43 kts | 89° |
| 2026-05-04 01:49 | 26.07662 | -80.14707 | 20 ft | 42 kts | 102° |
| 2026-05-04 01:49 | 26.07593 | -80.14582 | 18 ft | 9 kts | 196° |
| 2026-05-04 01:50 | 26.07562 | -80.14628 | 19 ft | 7 kts | 261° |
| 2026-05-04 01:50 | 26.07560 | -80.14678 | 17 ft | 6 kts | 269° |
| 2026-05-04 01:50 | 26.07542 | -80.14736 | 18 ft | 13 kts | 223° |
| 2026-05-04 01:50 | 26.07441 | -80.14819 | 17 ft | 22 kts | 226° |
| 2026-05-04 01:51 | 26.07368 | -80.14852 | 16 ft | 10 kts | 184° |
| 2026-05-04 01:51 | 26.07304 | -80.14854 | 16 ft | 8 kts | 181° |
| 2026-05-04 01:51 | 26.07233 | -80.14854 | 16 ft | 11 kts | 180° |
| 2026-05-04 01:51 | 26.07141 | -80.14855 | 16 ft | 14 kts | 179° |
| 2026-05-04 01:52 | 26.07056 | -80.14828 | 17 ft | 12 kts | 142° |
| 2026-05-04 01:52 | 26.07001 | -80.14770 | 16 ft | 10 kts | 134° |
| 2026-05-04 01:52 | 26.06954 | -80.14720 | 17 ft | 9 kts | 137° |
| 2026-05-04 01:52 | 26.06897 | -80.14669 | 16 ft | 18 kts | 143° |
| 2026-05-04 01:53 | 26.06825 | -80.14566 | 16 ft | 15 kts | 105° |
| 2026-05-04 01:53 | 26.06818 | -80.14462 | 16 ft | 13 kts | 90° |
| 2026-05-04 01:53 | 26.06819 | -80.14369 | 16 ft | 11 kts | 89° |
| 2026-05-04 01:53 | 26.06819 | -80.14344 | 16 ft | 4 kts | 89° |
| 2026-05-04 01:54 | 26.06819 | -80.14288 | 16 ft | 9 kts | 88° |
| 2026-05-04 01:54 | 26.06821 | -80.14228 | 16 ft | 2 kts | 85° |
| 2026-05-04 01:54 | 26.06821 | -80.14227 | 16 ft | 1 kts | 84° |
| 2026-05-04 01:55 | 26.06826 | -80.14217 | 16 ft | 1 kts | 53° |
| 2026-05-04 01:55 | 26.06843 | -80.14212 | 16 ft | 6 kts | 10° |
| 2026-05-04 01:55 | 26.06855 | -80.14212 | 16 ft | 2 kts | 1° |
| 2026-05-04 01:55 | 26.06869 | -80.14212 | 16 ft | 3 kts | 2° |
| 2026-05-04 01:56 | 26.06878 | -80.14211 | 16 ft | 0 kts | 1° |